Canton, Kansas
Current Conditions -  °F | °C
As of 12:15 PM on Sunday 25 Jan 2015 (Local Time) from KEWK Reporting Station
Overcast Overcast  
Wind Chill: 36°   Ceiling: 3400
Heat Index: 45°   Visibility: 10mi
Dew Point: 28°   Wind: 22mph
Humidity: 53%   Direction: 330°NNW
Pressure: 29.99"   Gusts: 37mph
Location:  38.39°N, 97.43°W
Report Text: KEWK 251815Z AUTO 33019G32KT 10SM OVC034 07/M02 A2999 RMK AO1
Loading
Personal Weather Stations






























Interactive Weather Map New forecast layout! Learn more

10-Day Weather Forecast

Advertisements
Track Severe Weather on mobile